Terminal Aerodrome Forecast
Issued by NWS

Home | Current Version | Previous Version | Text Only | Print | Product List | Glossary On
Versions: 1 2 3 4 5 6 7 8 9 10 11 12 13 14 15 16 17 18 19 20 21 22
273
FTUS43 KAPX 242327
TAFTVC
TAF
KTVC 242327Z 2500/2524 27008KT P6SM FEW035 BKN070
     FM250600 VRB03KT P6SM VCSH OVC025
     FM251700 31007KT P6SM BKN035
     FM252200 30005KT P6SM BKN080=

USA.gov is the U.S. government's official web portal to all federal, state and local government web resources and services.